Terminal Aerodrome Forecast
Issued by NWS Anchorage, AK

Home | Current Version | Previous Version | Text Only | Print | Product List | Glossary On
Versions: 1 2 3 4 5 6 7 8 9 10 11 12 13 14 15 16 17 18 19 20 21 22 23 24 25 26 27 28 29 30 31 32 33 34 35 36 37 38 39 40 41 42 43 44 45 46 47 48 49
000
FTAK31 PANC 282328
TAFANC
TAF
PANC 282328Z 2900/3006 32005KT P6SM -RA SCT040 BKN050 OVC060
     FM290700 VRB03KT 4SM -RA BKN025 OVC040
     FM291400 VRB02KT 6SM -RA BR SCT025 BKN035
     FM292100 32004KT P6SM VCSH SCT030 BKN050
     FM300000 32007KT P6SM FEW030 SCT050=

USA.gov is the U.S. government's official web portal to all federal, state and local government web resources and services.